This is the latest recevied weather packets stored in our database for station/object OK2BOZ-1. If no packets are shown the sender has not sent any weather packets the latest 10 day(s).
| Time | Temp. | Humidity | Pressure | Rain* | Wind** | Luminosity | Snow |
|---|---|---|---|---|---|---|---|
| 1777627702 | 21.11° C | 36% | 1026.9 hPa | - | - | - | - |
| 1777627386 | 22.22° C | 35% | 1026.9 hPa | - | - | - | - |
| 1777626756 | 22.22° C | 36% | 1027.1 hPa | - | - | - | - |
| 1777626441 | 22.22° C | 36% | 1027.1 hPa | - | - | - | - |
| 1777626125 | 22.22° C | 36% | 1027.2 hPa | - | - | - | - |
| 1777625810 | 20.56° C | 39% | 1027.2 hPa | - | - | - | - |
| 1777625495 | 19.44° C | 41% | 1027.2 hPa | - | - | - | - |
| 1777625181 | 19.44° C | 41% | 1027.2 hPa | - | - | - | - |
| 1777624865 | 19.44° C | 40% | 1027.2 hPa | - | - | - | - |
| 1777624550 | 19.44° C | 41% | 1027.2 hPa | - | - | - | - |
| 1777624235 | 19.44° C | 42% | 1027.2 hPa | - | - | - | - |
| 1777623920 | 18.33° C | 44% | 1027.1 hPa | - | - | - | - |
| 1777623606 | 17.78° C | 47% | 1027.1 hPa | - | - | - | - |
| 1777623291 | 17.78° C | 45% | 1027.2 hPa | - | - | - | - |
| 1777622975 | 17.22° C | 47% | 1027.2 hPa | - | - | - | - |
| 1777622661 | 17.78° C | 46% | 1027.2 hPa | - | - | - | - |
| 1777622346 | 17.22° C | 48% | 1027.3 hPa | - | - | - | - |
| 1777622032 | 16.67° C | 49% | 1027.3 hPa | - | - | - | - |
| 1777621717 | 17.22° C | 48% | 1027.3 hPa | - | - | - | - |
| 1777621087 | 17.22° C | 47% | 1027.5 hPa | - | - | - | - |
| 1777620471 | 17.22° C | 46% | 1027.5 hPa | - | - | - | - |
| 1777620471 | 16.11° C | 50% | 1027.5 hPa | - | - | - | - |
| 1777620471 | 16.11° C | 50% | 1027.5 hPa | - | - | - | - |
| 1777620471 | 17.22° C | 46% | 1027.5 hPa | - | - | - | - |
| 1777619199 | 15.56° C | 51% | 1027.5 hPa | - | - | - | - |
* Rain since midnight (hover to see other rain measurements)
** Current wind speed in m/s (hover to see current wind gust speed)